Weather History for Victorville, CA

Change the Weather History Date:

Sunday, October 20, 2013

  Actual Average (KSBD) Record (KSBD)
Temperature  
Mean Temperature 62 °F -  
Max Temperature 80 °F 79 °F 84 °F (2013)
Min Temperature 44 °F 51 °F 48 °F (2013)
Degree Days  
Heating Degree Days 3    
Growing Degree Days 12 (Base 50)    
Moisture  
Dew Point 16 °F    
Average Humidity 18    
Maximum Humidity 31    
Minimum Humidity 7    
Precipitation  
Precipitation 0.00 in - - ()
Sea Level Pressure  
Sea Level Pressure 30.01 in    
Wind  
Wind Speed 6 mph (South)    
Max Wind Speed 10 mph    
Max Gust Speed -    
Visibility 10 miles    
Events      
Averages and records for this station are not official NWS values.
T = Trace of Precipitation, MM = Missing Value Source: NWS Daily Summary

Daily Weather History Graph

Daily Weather History Graph

Search for Another Location

Airport:

Trip Planner

Search our weather history database for the weather conditions in past years. The results will help you decide how hot, cold, wet, or windy it might be!

Date:

Astronomy

Oct. 20, 2013 Rise Set
Actual Time 6:59 AM PDT 6:08 PM PDT
Civil Twilight 6:34 AM PDT 6:33 PM PDT
Nautical Twilight 6:04 AM PDT 7:03 PM PDT
Astronomical Twilight 5:35 AM PDT 7:32 PM PDT
Moon 7:25 PM PDT (10/20) 8:37 AM PDT (10/20)
Length of Visible Light 11h 59m
Length of Day
11h 08m
Waning Gibbous, 97% of the Moon is Illuminated
Oct 20
Waning Gibbous
Oct 26
Last Quarter
Nov 3
New
Nov 9
First Quarter
Nov 17
Full

Hourly Weather History & Observations

Time (PDT) Temp. Windchill Dew Point Humidity Pressure Visibility Wind Dir Wind Speed Gust Speed Precip Events Conditions
12:15 AM 51.8 °F - 10.4 °F 19% 30.07 in 10.0 mi SSE 6.9 mph - N/A   Unknown
12:35 AM 51.8 °F - 10.4 °F 19% 30.07 in 10.0 mi South 9.2 mph - N/A   Unknown
12:55 AM 50.0 °F - 12.2 °F 22% 30.06 in 10.0 mi South 9.2 mph - N/A   Unknown
1:15 AM 53.6 °F - 15.8 °F 22% 30.06 in 10.0 mi SSE 6.9 mph - N/A   Unknown
1:35 AM 53.6 °F - 17.6 °F 24% 30.06 in 10.0 mi South 9.2 mph - N/A   Unknown
1:55 AM 53.6 °F - 17.6 °F 24% 30.06 in 10.0 mi SSE 10.4 mph - N/A   Unknown
2:15 AM 53.6 °F - 17.6 °F 24% 30.06 in 10.0 mi SSE 9.2 mph - N/A   Unknown
2:35 AM 53.6 °F - 17.6 °F 24% 30.06 in 10.0 mi SSE 10.4 mph - N/A   Unknown
2:55 AM 51.8 °F - 15.8 °F 24% 30.05 in 10.0 mi SSE 8.1 mph - N/A   Unknown
3:15 AM 51.8 °F - 15.8 °F 24% 30.04 in 10.0 mi SSE 6.9 mph - N/A   Unknown
3:35 AM 48.2 °F - 15.8 °F 27% 30.04 in 10.0 mi South 5.8 mph - N/A   Unknown
3:55 AM 48.2 °F - 15.8 °F 27% 30.03 in 10.0 mi South 4.6 mph - N/A   Unknown
4:15 AM 46.4 °F 41.9 °F 15.8 °F 29% 30.03 in 10.0 mi South 9.2 mph - N/A   Unknown
4:35 AM 44.6 °F 39.7 °F 15.8 °F 31% 30.03 in 10.0 mi South 9.2 mph - N/A   Unknown
4:55 AM 48.2 °F - 15.8 °F 27% 30.03 in 10.0 mi South 8.1 mph - N/A   Unknown
5:15 AM 46.4 °F 41.9 °F 15.8 °F 29% 30.03 in 10.0 mi South 9.2 mph - N/A   Unknown
5:35 AM 48.2 °F - 15.8 °F 27% 30.03 in 10.0 mi South 9.2 mph - N/A   Unknown
5:55 AM 48.2 °F - 15.8 °F 27% 30.03 in 10.0 mi South 8.1 mph - N/A   Unknown
6:15 AM 48.2 °F - 15.8 °F 27% 30.04 in 10.0 mi SSE 9.2 mph - N/A   Unknown
6:35 AM 48.2 °F - 17.6 °F 30% 30.04 in 10.0 mi SSE 8.1 mph - N/A   Unknown
6:55 AM 46.4 °F 42.4 °F 15.8 °F 29% 30.04 in 10.0 mi South 8.1 mph - N/A   Unknown
7:15 AM 44.6 °F 39.7 °F 15.8 °F 31% 30.04 in 10.0 mi South 9.2 mph - N/A   Unknown
7:35 AM 44.6 °F 39.7 °F 15.8 °F 31% 30.04 in 10.0 mi South 9.2 mph - N/A   Unknown
7:55 AM 48.2 °F - 17.6 °F 30% 30.05 in 10.0 mi SSE 8.1 mph - N/A   Unknown
8:15 AM 53.6 °F - 17.6 °F 24% 30.05 in 10.0 mi SSE 8.1 mph - N/A   Unknown
8:35 AM 57.2 °F - 17.6 °F 21% 30.06 in 10.0 mi SSE 6.9 mph - N/A   Unknown
8:55 AM 60.8 °F - 17.6 °F 19% 30.07 in 10.0 mi SSE 6.9 mph - N/A   Unknown
9:15 AM 62.6 °F - 15.8 °F 16% 30.06 in 10.0 mi SSE 5.8 mph - N/A   Unknown
9:35 AM 64.4 °F - 15.8 °F 15% 30.06 in 10.0 mi SSE 4.6 mph - N/A   Unknown
9:55 AM 66.2 °F - 15.8 °F 14% 30.06 in 10.0 mi SE 3.5 mph - N/A   Unknown
10:15 AM 68.0 °F - 17.6 °F 15% 30.06 in 10.0 mi Calm Calm - N/A   Unknown
10:35 AM 69.8 °F - 15.8 °F 13% 30.05 in 10.0 mi Calm Calm - N/A   Unknown
10:55 AM 71.6 °F - 15.8 °F 12% 30.05 in 10.0 mi Calm Calm - N/A   Unknown
11:15 AM 71.6 °F - 15.8 °F 12% 30.05 in 10.0 mi Calm Calm - N/A   Unknown
11:35 AM 73.4 °F - 15.8 °F 11% 30.04 in 10.0 mi Calm Calm - N/A   Unknown
11:55 AM 75.2 °F - 15.8 °F 11% 30.04 in 10.0 mi Calm Calm - N/A   Unknown
12:15 PM 77.0 °F - 15.8 °F 10% 30.03 in 10.0 mi Calm Calm - N/A   Unknown
12:35 PM 77.0 °F - 15.8 °F 10% 30.02 in 10.0 mi Calm Calm - N/A   Unknown
12:55 PM 78.8 °F - 17.6 °F 10% 30.01 in 10.0 mi NW 4.6 mph - N/A   Unknown
1:15 PM 78.8 °F - 15.8 °F 9% 30.00 in 10.0 mi Calm Calm - N/A   Unknown
1:35 PM 78.8 °F - 17.6 °F 10% 29.99 in 10.0 mi Calm Calm - N/A   Unknown
1:55 PM 80.6 °F - 17.6 °F 10% 29.99 in 10.0 mi North 3.5 mph - N/A   Unknown
2:15 PM 80.6 °F - 17.6 °F 10% 29.98 in 10.0 mi West 3.5 mph - N/A   Unknown
2:35 PM 80.6 °F - 17.6 °F 10% 29.97 in 10.0 mi NNE 4.6 mph - N/A   Unknown
2:55 PM 80.6 °F - 17.6 °F 10% 29.97 in 10.0 mi North 5.8 mph - N/A   Unknown
3:15 PM 80.6 °F - 17.6 °F 10% 29.97 in 10.0 mi North 4.6 mph - N/A   Unknown
3:35 PM 80.6 °F - 17.6 °F 10% 29.96 in 10.0 mi Calm Calm - N/A   Unknown
3:55 PM 80.6 °F - 17.6 °F 10% 29.96 in 10.0 mi NW 3.5 mph - N/A   Unknown
4:15 PM 80.6 °F - 15.8 °F 9% 29.95 in 10.0 mi Calm Calm - N/A   Unknown
4:35 PM 80.6 °F - 15.8 °F 9% 29.95 in 10.0 mi WNW 3.5 mph - N/A   Unknown
4:55 PM 80.6 °F - 15.8 °F 9% 29.95 in 10.0 mi NNE 3.5 mph - N/A   Unknown
5:15 PM 80.6 °F - 15.8 °F 9% 29.95 in 10.0 mi Calm Calm - N/A   Unknown
5:35 PM 80.6 °F - 10.4 °F 7% 29.95 in 10.0 mi Calm Calm - N/A   Unknown
5:55 PM 78.8 °F - 10.4 °F 7% 29.95 in 10.0 mi Calm Calm - N/A   Unknown
6:15 PM 75.2 °F - 8.6 °F 8% 29.95 in 10.0 mi Calm Calm - N/A   Unknown
6:35 PM 75.2 °F - 8.6 °F 8% 29.95 in 10.0 mi Calm Calm - N/A   Unknown
6:55 PM 69.8 °F - 17.6 °F 14% 29.96 in 10.0 mi South 8.1 mph - N/A   Unknown
7:15 PM 66.2 °F - 19.4 °F 17% 29.97 in 10.0 mi South 4.6 mph - N/A   Unknown
7:35 PM 64.4 °F - 19.4 °F 18% 29.97 in 10.0 mi SSW 4.6 mph - N/A   Unknown
7:55 PM 66.2 °F - 19.4 °F 17% 29.97 in 10.0 mi SSE 6.9 mph - N/A   Unknown
8:15 PM 64.4 °F - 21.2 °F 19% 29.98 in 10.0 mi SSW 3.5 mph - N/A   Unknown
8:35 PM 64.4 °F - 21.2 °F 19% 29.98 in 10.0 mi Calm Calm - N/A   Unknown
8:55 PM 62.6 °F - 19.4 °F 19% 29.99 in 10.0 mi SSW 6.9 mph - N/A   Unknown
9:15 PM 60.8 °F - 19.4 °F 20% 30.00 in 10.0 mi South 4.6 mph - N/A   Unknown
9:35 PM 60.8 °F - 19.4 °F 20% 30.00 in 10.0 mi South 4.6 mph - N/A   Unknown
9:55 PM 60.8 °F - 19.4 °F 20% 30.00 in 10.0 mi South 8.1 mph - N/A   Unknown
10:15 PM 55.4 °F - 17.6 °F 23% 30.00 in 10.0 mi South 10.4 mph - N/A   Unknown
10:35 PM 55.4 °F - 17.6 °F 23% 30.00 in 10.0 mi SSW 5.8 mph - N/A   Unknown
10:55 PM 57.2 °F - 17.6 °F 21% 30.01 in 10.0 mi SSE 3.5 mph - N/A   Unknown
11:15 PM 57.2 °F - 17.6 °F 21% 30.01 in 10.0 mi South 4.6 mph - N/A   Unknown
11:35 PM 53.6 °F - 19.4 °F 26% 30.00 in 10.0 mi South 5.8 mph - N/A   Unknown
11:55 PM 55.4 °F - 19.4 °F 25% 30.00 in 10.0 mi SE 5.8 mph - N/A   Unknown